sensor_id;sensor_type;location;lat;lon;timestamp;P1;durP1;ratioP1;P2;durP2;ratioP2
83835;SDS011;73859;40.830;43.828;2023-12-14T00:01:16;1.63;;;1.02;;
83835;SDS011;73859;40.830;43.828;2023-12-14T00:03:43;1.85;;;0.98;;
83835;SDS011;73859;40.830;43.828;2023-12-14T00:06:11;1.80;;;1.35;;
83835;SDS011;73859;40.830;43.828;2023-12-14T00:08:39;1.73;;;0.93;;
83835;SDS011;73859;40.830;43.828;2023-12-14T00:11:08;1.45;;;0.60;;
83835;SDS011;73859;40.830;43.828;2023-12-14T00:13:36;2.35;;;1.10;;
83835;SDS011;73859;40.830;43.828;2023-12-14T00:18:32;0.85;;;0.77;;
83835;SDS011;73859;40.830;43.828;2023-12-14T00:20:59;1.23;;;0.80;;
83835;SDS011;73859;40.830;43.828;2023-12-14T00:23:26;1.38;;;0.80;;
83835;SDS011;73859;40.830;43.828;2023-12-14T00:25:54;1.17;;;0.85;;
83835;SDS011;73859;40.830;43.828;2023-12-14T00:28:21;1.33;;;0.68;;
83835;SDS011;73859;40.830;43.828;2023-12-14T00:30:53;1.73;;;0.93;;
83835;SDS011;73859;40.830;43.828;2023-12-14T00:33:20;1.25;;;0.90;;
83835;SDS011;73859;40.830;43.828;2023-12-14T00:35:48;1.58;;;1.15;;
83835;SDS011;73859;40.830;43.828;2023-12-14T00:38:15;2.55;;;1.02;;
83835;SDS011;73859;40.830;43.828;2023-12-14T00:40:42;1.35;;;0.98;;
83835;SDS011;73859;40.830;43.828;2023-12-14T00:43:10;1.20;;;0.77;;
83835;SDS011;73859;40.830;43.828;2023-12-14T00:45:37;1.30;;;0.85;;
83835;SDS011;73859;40.830;43.828;2023-12-14T00:48:05;0.65;;;0.55;;
83835;SDS011;73859;40.830;43.828;2023-12-14T00:50:32;1.27;;;0.75;;
83835;SDS011;73859;40.830;43.828;2023-12-14T00:52:59;2.33;;;1.38;;
83835;SDS011;73859;40.830;43.828;2023-12-14T00:55:27;1.00;;;0.90;;
83835;SDS011;73859;40.830;43.828;2023-12-14T00:57:54;0.80;;;0.73;;
83835;SDS011;73859;40.830;43.828;2023-12-14T01:00:21;1.80;;;0.80;;
83835;SDS011;73859;40.830;43.828;2023-12-14T01:02:49;4.25;;;0.95;;
83835;SDS011;73859;40.830;43.828;2023-12-14T01:05:16;1.77;;;0.90;;
83835;SDS011;73859;40.830;43.828;2023-12-14T01:07:44;1.55;;;1.13;;
83835;SDS011;73859;40.830;43.828;2023-12-14T01:10:11;0.93;;;0.70;;
83835;SDS011;73859;40.830;43.828;2023-12-14T01:12:38;1.58;;;0.75;;
83835;SDS011;73859;40.830;43.828;2023-12-14T01:15:06;1.33;;;0.90;;
83835;SDS011;73859;40.830;43.828;2023-12-14T01:17:34;1.42;;;0.65;;
83835;SDS011;73859;40.830;43.828;2023-12-14T01:20:04;1.40;;;0.90;;
83835;SDS011;73859;40.830;43.828;2023-12-14T01:22:34;1.00;;;0.90;;
83835;SDS011;73859;40.830;43.828;2023-12-14T01:25:02;0.90;;;0.57;;
83835;SDS011;73859;40.830;43.828;2023-12-14T01:27:29;1.90;;;0.75;;
83835;SDS011;73859;40.830;43.828;2023-12-14T01:29:57;0.85;;;0.50;;
83835;SDS011;73859;40.830;43.828;2023-12-14T01:32:24;1.15;;;0.70;;
83835;SDS011;73859;40.830;43.828;2023-12-14T01:34:51;1.25;;;0.85;;
83835;SDS011;73859;40.830;43.828;2023-12-14T01:37:19;0.82;;;0.50;;
83835;SDS011;73859;40.830;43.828;2023-12-14T01:39:46;1.00;;;0.70;;
83835;SDS011;73859;40.830;43.828;2023-12-14T01:42:14;0.73;;;0.65;;
83835;SDS011;73859;40.830;43.828;2023-12-14T01:44:41;0.90;;;0.73;;
83835;SDS011;73859;40.830;43.828;2023-12-14T01:47:08;1.48;;;0.88;;
83835;SDS011;73859;40.830;43.828;2023-12-14T01:49:36;1.52;;;0.68;;
83835;SDS011;73859;40.830;43.828;2023-12-14T01:52:04;1.08;;;0.70;;
83835;SDS011;73859;40.830;43.828;2023-12-14T01:54:32;1.27;;;0.75;;
83835;SDS011;73859;40.830;43.828;2023-12-14T01:57:00;0.60;;;0.45;;
83835;SDS011;73859;40.830;43.828;2023-12-14T01:59:27;0.70;;;0.60;;
83835;SDS011;73859;40.830;43.828;2023-12-14T02:01:55;2.30;;;0.80;;
83835;SDS011;73859;40.830;43.828;2023-12-14T02:04:24;0.90;;;0.80;;
83835;SDS011;73859;40.830;43.828;2023-12-14T02:06:52;1.10;;;0.80;;
83835;SDS011;73859;40.830;43.828;2023-12-14T02:09:19;1.40;;;1.30;;
83835;SDS011;73859;40.830;43.828;2023-12-14T02:11:47;1.13;;;1.00;;
83835;SDS011;73859;40.830;43.828;2023-12-14T02:14:14;0.95;;;0.68;;
83835;SDS011;73859;40.830;43.828;2023-12-14T02:16:42;1.00;;;0.60;;
83835;SDS011;73859;40.830;43.828;2023-12-14T02:19:09;0.50;;;0.50;;
83835;SDS011;73859;40.830;43.828;2023-12-14T02:21:37;0.57;;;0.50;;
83835;SDS011;73859;40.830;43.828;2023-12-14T02:24:04;0.50;;;0.47;;
83835;SDS011;73859;40.830;43.828;2023-12-14T02:26:32;1.30;;;0.80;;
83835;SDS011;73859;40.830;43.828;2023-12-14T02:28:59;0.80;;;0.60;;
83835;SDS011;73859;40.830;43.828;2023-12-14T02:31:27;0.60;;;0.60;;
83835;SDS011;73859;40.830;43.828;2023-12-14T02:33:54;0.73;;;0.60;;
83835;SDS011;73859;40.830;43.828;2023-12-14T02:36:21;1.13;;;0.68;;
83835;SDS011;73859;40.830;43.828;2023-12-14T02:38:49;0.95;;;0.77;;
83835;SDS011;73859;40.830;43.828;2023-12-14T02:41:16;0.75;;;0.75;;
83835;SDS011;73859;40.830;43.828;2023-12-14T02:43:44;1.17;;;0.77;;
83835;SDS011;73859;40.830;43.828;2023-12-14T02:46:11;4.47;;;0.63;;
83835;SDS011;73859;40.830;43.828;2023-12-14T02:48:42;0.77;;;0.65;;
83835;SDS011;73859;40.830;43.828;2023-12-14T02:51:13;2.15;;;0.73;;
83835;SDS011;73859;40.830;43.828;2023-12-14T02:53:44;0.60;;;0.60;;
83835;SDS011;73859;40.830;43.828;2023-12-14T02:56:11;0.70;;;0.68;;
83835;SDS011;73859;40.830;43.828;2023-12-14T02:58:39;0.73;;;0.65;;
83835;SDS011;73859;40.830;43.828;2023-12-14T03:01:06;0.70;;;0.70;;
83835;SDS011;73859;40.830;43.828;2023-12-14T03:03:34;1.00;;;0.60;;
83835;SDS011;73859;40.830;43.828;2023-12-14T03:06:04;1.40;;;0.82;;
83835;SDS011;73859;40.830;43.828;2023-12-14T03:08:32;1.25;;;0.60;;
83835;SDS011;73859;40.830;43.828;2023-12-14T03:10:59;1.00;;;0.60;;
83835;SDS011;73859;40.830;43.828;2023-12-14T03:13:27;0.22;;;0.22;;
83835;SDS011;73859;40.830;43.828;2023-12-14T03:18:22;1.13;;;0.70;;
83835;SDS011;73859;40.830;43.828;2023-12-14T03:20:50;1.38;;;0.70;;
83835;SDS011;73859;40.830;43.828;2023-12-14T03:23:17;0.75;;;0.75;;
83835;SDS011;73859;40.830;43.828;2023-12-14T03:25:45;0.75;;;0.75;;
83835;SDS011;73859;40.830;43.828;2023-12-14T03:28:12;1.13;;;0.75;;
83835;SDS011;73859;40.830;43.828;2023-12-14T03:30:39;0.95;;;0.70;;
83835;SDS011;73859;40.830;43.828;2023-12-14T03:33:07;0.63;;;0.60;;
83835;SDS011;73859;40.830;43.828;2023-12-14T03:35:35;1.42;;;0.70;;
83835;SDS011;73859;40.830;43.828;2023-12-14T03:38:03;1.00;;;0.90;;
83835;SDS011;73859;40.830;43.828;2023-12-14T03:40:30;0.63;;;0.52;;
83835;SDS011;73859;40.830;43.828;2023-12-14T03:42:57;0.98;;;0.63;;
83835;SDS011;73859;40.830;43.828;2023-12-14T03:45:25;2.53;;;0.70;;
83835;SDS011;73859;40.830;43.828;2023-12-14T03:47:52;1.85;;;0.95;;
83835;SDS011;73859;40.830;43.828;2023-12-14T03:50:20;0.85;;;0.70;;
83835;SDS011;73859;40.830;43.828;2023-12-14T03:52:47;1.15;;;0.70;;
83835;SDS011;73859;40.830;43.828;2023-12-14T03:55:15;0.25;;;0.25;;
83835;SDS011;73859;40.830;43.828;2023-12-14T03:57:42;0.50;;;0.50;;
83835;SDS011;73859;40.830;43.828;2023-12-14T04:00:10;0.65;;;0.60;;
83835;SDS011;73859;40.830;43.828;2023-12-14T04:02:39;1.25;;;0.55;;
83835;SDS011;73859;40.830;43.828;2023-12-14T04:05:07;1.00;;;0.70;;
83835;SDS011;73859;40.830;43.828;2023-12-14T04:07:38;1.20;;;0.70;;
83835;SDS011;73859;40.830;43.828;2023-12-14T04:10:08;0.95;;;0.77;;
83835;SDS011;73859;40.830;43.828;2023-12-14T04:12:36;0.63;;;0.57;;
83835;SDS011;73859;40.830;43.828;2023-12-14T04:15:05;1.35;;;0.80;;
83835;SDS011;73859;40.830;43.828;2023-12-14T04:17:34;0.88;;;0.68;;
83835;SDS011;73859;40.830;43.828;2023-12-14T04:20:02;0.73;;;0.70;;
83835;SDS011;73859;40.830;43.828;2023-12-14T04:22:30;1.08;;;0.95;;
83835;SDS011;73859;40.830;43.828;2023-12-14T04:24:58;1.13;;;1.02;;
83835;SDS011;73859;40.830;43.828;2023-12-14T04:27:25;4.00;;;1.30;;
83835;SDS011;73859;40.830;43.828;2023-12-14T04:29:54;1.83;;;1.05;;
83835;SDS011;73859;40.830;43.828;2023-12-14T04:32:21;0.70;;;0.70;;
83835;SDS011;73859;40.830;43.828;2023-12-14T04:34:48;1.00;;;0.90;;
83835;SDS011;73859;40.830;43.828;2023-12-14T04:37:16;0.95;;;0.60;;
83835;SDS011;73859;40.830;43.828;2023-12-14T04:39:43;0.85;;;0.60;;
83835;SDS011;73859;40.830;43.828;2023-12-14T04:42:11;0.88;;;0.63;;
83835;SDS011;73859;40.830;43.828;2023-12-14T04:44:38;0.82;;;0.55;;
83835;SDS011;73859;40.830;43.828;2023-12-14T04:47:06;0.52;;;0.43;;
83835;SDS011;73859;40.830;43.828;2023-12-14T04:49:35;0.75;;;0.57;;
83835;SDS011;73859;40.830;43.828;2023-12-14T04:52:03;1.23;;;0.70;;
83835;SDS011;73859;40.830;43.828;2023-12-14T04:54:30;0.75;;;0.70;;
83835;SDS011;73859;40.830;43.828;2023-12-14T04:56:58;0.82;;;0.80;;
83835;SDS011;73859;40.830;43.828;2023-12-14T04:59:25;0.95;;;0.63;;
83835;SDS011;73859;40.830;43.828;2023-12-14T05:01:53;0.70;;;0.65;;
83835;SDS011;73859;40.830;43.828;2023-12-14T05:04:20;0.90;;;0.63;;
83835;SDS011;73859;40.830;43.828;2023-12-14T05:06:47;0.90;;;0.80;;
83835;SDS011;73859;40.830;43.828;2023-12-14T05:09:15;4.88;;;0.70;;
83835;SDS011;73859;40.830;43.828;2023-12-14T05:11:42;0.82;;;0.70;;
83835;SDS011;73859;40.830;43.828;2023-12-14T05:14:10;1.80;;;1.10;;
83835;SDS011;73859;40.830;43.828;2023-12-14T05:16:37;1.25;;;0.75;;
83835;SDS011;73859;40.830;43.828;2023-12-14T05:19:06;1.48;;;1.00;;
83835;SDS011;73859;40.830;43.828;2023-12-14T05:21:33;1.27;;;0.90;;
83835;SDS011;73859;40.830;43.828;2023-12-14T05:24:01;1.05;;;0.65;;
83835;SDS011;73859;40.830;43.828;2023-12-14T05:26:28;1.13;;;0.95;;
83835;SDS011;73859;40.830;43.828;2023-12-14T05:28:55;1.70;;;1.55;;
83835;SDS011;73859;40.830;43.828;2023-12-14T05:31:23;2.53;;;1.30;;
83835;SDS011;73859;40.830;43.828;2023-12-14T05:33:50;4.97;;;3.03;;
83835;SDS011;73859;40.830;43.828;2023-12-14T05:36:18;3.42;;;1.67;;
83835;SDS011;73859;40.830;43.828;2023-12-14T05:38:46;6.07;;;4.43;;
83835;SDS011;73859;40.830;43.828;2023-12-14T05:41:13;3.13;;;1.40;;
83835;SDS011;73859;40.830;43.828;2023-12-14T05:43:40;4.35;;;1.88;;
83835;SDS011;73859;40.830;43.828;2023-12-14T05:46:08;3.03;;;1.40;;
83835;SDS011;73859;40.830;43.828;2023-12-14T05:48:37;6.20;;;1.70;;
83835;SDS011;73859;40.830;43.828;2023-12-14T05:51:04;3.70;;;2.13;;
83835;SDS011;73859;40.830;43.828;2023-12-14T05:53:32;4.18;;;2.30;;
83835;SDS011;73859;40.830;43.828;2023-12-14T05:56:03;2.92;;;1.77;;
83835;SDS011;73859;40.830;43.828;2023-12-14T05:58:31;2.50;;;1.42;;
83835;SDS011;73859;40.830;43.828;2023-12-14T06:00:58;3.08;;;1.80;;
83835;SDS011;73859;40.830;43.828;2023-12-14T06:03:26;2.75;;;1.60;;
83835;SDS011;73859;40.830;43.828;2023-12-14T06:05:53;2.33;;;1.70;;
83835;SDS011;73859;40.830;43.828;2023-12-14T06:08:20;4.32;;;1.83;;
83835;SDS011;73859;40.830;43.828;2023-12-14T06:10:48;2.03;;;0.90;;
83835;SDS011;73859;40.830;43.828;2023-12-14T06:13:15;27.23;;;14.32;;
83835;SDS011;73859;40.830;43.828;2023-12-14T06:15:42;6.88;;;1.88;;
83835;SDS011;73859;40.830;43.828;2023-12-14T06:18:10;3.28;;;1.83;;
83835;SDS011;73859;40.830;43.828;2023-12-14T06:20:37;5.03;;;2.72;;
83835;SDS011;73859;40.830;43.828;2023-12-14T06:23:04;3.80;;;2.00;;
83835;SDS011;73859;40.830;43.828;2023-12-14T06:25:32;4.13;;;2.15;;
83835;SDS011;73859;40.830;43.828;2023-12-14T06:27:59;3.90;;;2.05;;
83835;SDS011;73859;40.830;43.828;2023-12-14T06:30:27;4.03;;;1.88;;
83835;SDS011;73859;40.830;43.828;2023-12-14T06:32:54;2.47;;;1.75;;
83835;SDS011;73859;40.830;43.828;2023-12-14T06:35:23;2.83;;;1.70;;
83835;SDS011;73859;40.830;43.828;2023-12-14T06:37:50;6.07;;;2.40;;
83835;SDS011;73859;40.830;43.828;2023-12-14T06:40:17;3.40;;;1.90;;
83835;SDS011;73859;40.830;43.828;2023-12-14T06:42:46;4.43;;;1.75;;
83835;SDS011;73859;40.830;43.828;2023-12-14T06:45:13;2.38;;;1.65;;
83835;SDS011;73859;40.830;43.828;2023-12-14T06:47:41;3.72;;;2.10;;
83835;SDS011;73859;40.830;43.828;2023-12-14T06:50:10;3.03;;;1.75;;
83835;SDS011;73859;40.830;43.828;2023-12-14T06:52:37;1.90;;;1.20;;
83835;SDS011;73859;40.830;43.828;2023-12-14T06:55:05;1.92;;;1.27;;
83835;SDS011;73859;40.830;43.828;2023-12-14T06:57:34;1.67;;;1.00;;
83835;SDS011;73859;40.830;43.828;2023-12-14T07:00:01;0.85;;;0.50;;
83835;SDS011;73859;40.830;43.828;2023-12-14T07:02:29;1.85;;;1.13;;
83835;SDS011;73859;40.830;43.828;2023-12-14T07:04:57;1.88;;;1.00;;
83835;SDS011;73859;40.830;43.828;2023-12-14T07:07:24;2.55;;;1.30;;
83835;SDS011;73859;40.830;43.828;2023-12-14T07:09:54;1.70;;;1.00;;
83835;SDS011;73859;40.830;43.828;2023-12-14T07:12:22;2.00;;;1.35;;
83835;SDS011;73859;40.830;43.828;2023-12-14T07:14:49;1.77;;;1.10;;
83835;SDS011;73859;40.830;43.828;2023-12-14T07:17:17;2.03;;;1.20;;
83835;SDS011;73859;40.830;43.828;2023-12-14T07:19:44;2.20;;;1.25;;
83835;SDS011;73859;40.830;43.828;2023-12-14T07:22:12;1.92;;;0.68;;
83835;SDS011;73859;40.830;43.828;2023-12-14T07:24:39;1.83;;;1.30;;
83835;SDS011;73859;40.830;43.828;2023-12-14T07:27:18;1.52;;;0.93;;
83835;SDS011;73859;40.830;43.828;2023-12-14T07:29:45;1.63;;;0.95;;
83835;SDS011;73859;40.830;43.828;2023-12-14T07:32:13;2.25;;;0.90;;
83835;SDS011;73859;40.830;43.828;2023-12-14T07:34:40;1.52;;;0.77;;
83835;SDS011;73859;40.830;43.828;2023-12-14T07:37:08;0.93;;;0.70;;
83835;SDS011;73859;40.830;43.828;2023-12-14T07:39:35;1.08;;;0.80;;
83835;SDS011;73859;40.830;43.828;2023-12-14T07:42:05;1.40;;;0.93;;
83835;SDS011;73859;40.830;43.828;2023-12-14T07:44:33;0.93;;;0.63;;
83835;SDS011;73859;40.830;43.828;2023-12-14T07:47:02;1.35;;;0.90;;
83835;SDS011;73859;40.830;43.828;2023-12-14T07:49:30;2.42;;;0.88;;
83835;SDS011;73859;40.830;43.828;2023-12-14T07:51:57;0.77;;;0.68;;
83835;SDS011;73859;40.830;43.828;2023-12-14T07:54:24;2.53;;;1.33;;
83835;SDS011;73859;40.830;43.828;2023-12-14T07:56:53;1.85;;;1.02;;
83835;SDS011;73859;40.830;43.828;2023-12-14T07:59:21;1.42;;;0.80;;
83835;SDS011;73859;40.830;43.828;2023-12-14T08:01:48;1.52;;;1.02;;
83835;SDS011;73859;40.830;43.828;2023-12-14T08:04:16;2.80;;;1.00;;
83835;SDS011;73859;40.830;43.828;2023-12-14T08:06:43;2.45;;;1.48;;
83835;SDS011;73859;40.830;43.828;2023-12-14T08:09:11;1.52;;;0.90;;
83835;SDS011;73859;40.830;43.828;2023-12-14T08:11:38;1.05;;;0.80;;
83835;SDS011;73859;40.830;43.828;2023-12-14T08:14:05;2.85;;;1.23;;
83835;SDS011;73859;40.830;43.828;2023-12-14T08:16:33;1.67;;;0.93;;
83835;SDS011;73859;40.830;43.828;2023-12-14T08:19:00;1.17;;;0.98;;
83835;SDS011;73859;40.830;43.828;2023-12-14T08:21:27;1.08;;;0.95;;
83835;SDS011;73859;40.830;43.828;2023-12-14T08:23:55;0.63;;;0.60;;
83835;SDS011;73859;40.830;43.828;2023-12-14T08:26:22;1.30;;;0.50;;
83835;SDS011;73859;40.830;43.828;2023-12-14T08:28:50;0.95;;;0.77;;
83835;SDS011;73859;40.830;43.828;2023-12-14T08:31:17;1.23;;;0.77;;
83835;SDS011;73859;40.830;43.828;2023-12-14T08:33:45;0.95;;;0.80;;
83835;SDS011;73859;40.830;43.828;2023-12-14T08:36:16;1.63;;;1.15;;
83835;SDS011;73859;40.830;43.828;2023-12-14T08:38:44;2.08;;;1.10;;
83835;SDS011;73859;40.830;43.828;2023-12-14T08:41:14;1.55;;;1.45;;
83835;SDS011;73859;40.830;43.828;2023-12-14T08:43:43;2.03;;;0.98;;
83835;SDS011;73859;40.830;43.828;2023-12-14T08:46:13;1.73;;;1.30;;
83835;SDS011;73859;40.830;43.828;2023-12-14T08:48:41;3.45;;;1.50;;
83835;SDS011;73859;40.830;43.828;2023-12-14T08:51:08;3.00;;;1.63;;
83835;SDS011;73859;40.830;43.828;2023-12-14T08:53:36;2.90;;;1.27;;
83835;SDS011;73859;40.830;43.828;2023-12-14T08:56:03;1.73;;;1.25;;
83835;SDS011;73859;40.830;43.828;2023-12-14T08:58:31;2.05;;;1.30;;
83835;SDS011;73859;40.830;43.828;2023-12-14T09:00:58;2.95;;;1.67;;
83835;SDS011;73859;40.830;43.828;2023-12-14T09:03:27;2.63;;;1.45;;
83835;SDS011;73859;40.830;43.828;2023-12-14T09:05:54;3.30;;;2.10;;
83835;SDS011;73859;40.830;43.828;2023-12-14T09:08:22;3.35;;;1.67;;
83835;SDS011;73859;40.830;43.828;2023-12-14T09:10:50;3.58;;;1.70;;
83835;SDS011;73859;40.830;43.828;2023-12-14T09:13:17;3.28;;;1.80;;
83835;SDS011;73859;40.830;43.828;2023-12-14T09:15:45;3.88;;;1.65;;
83835;SDS011;73859;40.830;43.828;2023-12-14T09:18:12;4.30;;;2.00;;
83835;SDS011;73859;40.830;43.828;2023-12-14T09:20:42;2.25;;;1.35;;
83835;SDS011;73859;40.830;43.828;2023-12-14T09:23:10;3.17;;;1.10;;
83835;SDS011;73859;40.830;43.828;2023-12-14T09:25:37;2.00;;;1.00;;
83835;SDS011;73859;40.830;43.828;2023-12-14T09:28:04;3.28;;;1.77;;
83835;SDS011;73859;40.830;43.828;2023-12-14T09:30:32;3.63;;;1.40;;
83835;SDS011;73859;40.830;43.828;2023-12-14T09:32:59;3.60;;;1.70;;
83835;SDS011;73859;40.830;43.828;2023-12-14T09:35:27;2.92;;;1.42;;
83835;SDS011;73859;40.830;43.828;2023-12-14T09:37:54;1.90;;;1.15;;
83835;SDS011;73859;40.830;43.828;2023-12-14T09:40:23;2.67;;;1.33;;
83835;SDS011;73859;40.830;43.828;2023-12-14T09:42:50;2.50;;;1.10;;
83835;SDS011;73859;40.830;43.828;2023-12-14T09:45:18;2.40;;;1.17;;
83835;SDS011;73859;40.830;43.828;2023-12-14T09:47:50;1.70;;;1.05;;
83835;SDS011;73859;40.830;43.828;2023-12-14T09:50:20;2.13;;;1.15;;
83835;SDS011;73859;40.830;43.828;2023-12-14T09:52:48;2.97;;;1.20;;
83835;SDS011;73859;40.830;43.828;2023-12-14T09:55:16;2.85;;;1.40;;
83835;SDS011;73859;40.830;43.828;2023-12-14T09:57:44;2.58;;;1.17;;
83835;SDS011;73859;40.830;43.828;2023-12-14T10:00:12;2.65;;;1.38;;
83835;SDS011;73859;40.830;43.828;2023-12-14T10:02:41;3.45;;;1.60;;
83835;SDS011;73859;40.830;43.828;2023-12-14T10:05:09;2.78;;;1.05;;
83835;SDS011;73859;40.830;43.828;2023-12-14T10:07:41;1.73;;;0.80;;
83835;SDS011;73859;40.830;43.828;2023-12-14T10:10:13;1.63;;;1.05;;
83835;SDS011;73859;40.830;43.828;2023-12-14T10:13:00;1.48;;;0.90;;
83835;SDS011;73859;40.830;43.828;2023-12-14T10:15:27;1.42;;;0.82;;
83835;SDS011;73859;40.830;43.828;2023-12-14T10:17:55;2.80;;;0.90;;
83835;SDS011;73859;40.830;43.828;2023-12-14T10:20:22;1.00;;;0.88;;
83835;SDS011;73859;40.830;43.828;2023-12-14T10:22:50;1.17;;;0.80;;
83835;SDS011;73859;40.830;43.828;2023-12-14T10:25:18;1.40;;;0.98;;
83835;SDS011;73859;40.830;43.828;2023-12-14T10:27:47;7.93;;;7.25;;
83835;SDS011;73859;40.830;43.828;2023-12-14T10:30:18;1.25;;;0.73;;
83835;SDS011;73859;40.830;43.828;2023-12-14T10:32:49;1.63;;;1.25;;
83835;SDS011;73859;40.830;43.828;2023-12-14T10:35:17;1.17;;;0.50;;
83835;SDS011;73859;40.830;43.828;2023-12-14T10:37:46;1.55;;;0.70;;
83835;SDS011;73859;40.830;43.828;2023-12-14T10:40:18;2.35;;;1.40;;
83835;SDS011;73859;40.830;43.828;2023-12-14T10:42:45;1.23;;;0.90;;
83835;SDS011;73859;40.830;43.828;2023-12-14T10:45:15;3.20;;;0.90;;
83835;SDS011;73859;40.830;43.828;2023-12-14T10:47:47;1.80;;;1.00;;
83835;SDS011;73859;40.830;43.828;2023-12-14T10:50:16;1.10;;;0.63;;
83835;SDS011;73859;40.830;43.828;2023-12-14T10:52:45;2.47;;;0.95;;
83835;SDS011;73859;40.830;43.828;2023-12-14T10:58:00;2.60;;;0.90;;
83835;SDS011;73859;40.830;43.828;2023-12-14T11:00:32;1.55;;;0.88;;
83835;SDS011;73859;40.830;43.828;2023-12-14T11:03:00;2.53;;;1.15;;
83835;SDS011;73859;40.830;43.828;2023-12-14T11:05:28;1.92;;;0.90;;
83835;SDS011;73859;40.830;43.828;2023-12-14T11:08:00;1.42;;;1.10;;
83835;SDS011;73859;40.830;43.828;2023-12-14T11:10:40;2.33;;;1.10;;
83835;SDS011;73859;40.830;43.828;2023-12-14T11:13:19;1.63;;;1.00;;
83835;SDS011;73859;40.830;43.828;2023-12-14T11:15:49;2.22;;;1.50;;
83835;SDS011;73859;40.830;43.828;2023-12-14T11:23:13;1.80;;;1.17;;
83835;SDS011;73859;40.830;43.828;2023-12-14T11:25:44;1.75;;;1.00;;
83835;SDS011;73859;40.830;43.828;2023-12-14T11:28:23;1.85;;;1.20;;
83835;SDS011;73859;40.830;43.828;2023-12-14T11:30:54;2.28;;;1.30;;
83835;SDS011;73859;40.830;43.828;2023-12-14T11:33:23;1.40;;;0.80;;
83835;SDS011;73859;40.830;43.828;2023-12-14T11:35:52;3.10;;;1.35;;
83835;SDS011;73859;40.830;43.828;2023-12-14T11:38:20;1.80;;;1.08;;
83835;SDS011;73859;40.830;43.828;2023-12-14T11:40:48;0.98;;;0.63;;
83835;SDS011;73859;40.830;43.828;2023-12-14T11:43:17;1.42;;;0.80;;
83835;SDS011;73859;40.830;43.828;2023-12-14T11:45:48;1.25;;;0.88;;
83835;SDS011;73859;40.830;43.828;2023-12-14T11:48:16;1.20;;;0.80;;
83835;SDS011;73859;40.830;43.828;2023-12-14T11:50:44;1.73;;;0.80;;
83835;SDS011;73859;40.830;43.828;2023-12-14T11:53:12;5.93;;;3.70;;
83835;SDS011;73859;40.830;43.828;2023-12-14T11:55:41;3.97;;;2.28;;
83835;SDS011;73859;40.830;43.828;2023-12-14T11:58:11;5.03;;;2.22;;
83835;SDS011;73859;40.830;43.828;2023-12-14T12:00:41;3.97;;;2.00;;
83835;SDS011;73859;40.830;43.828;2023-12-14T12:03:18;1.98;;;1.15;;
83835;SDS011;73859;40.830;43.828;2023-12-14T12:05:48;1.70;;;0.70;;
83835;SDS011;73859;40.830;43.828;2023-12-14T12:08:19;3.47;;;1.30;;
83835;SDS011;73859;40.830;43.828;2023-12-14T12:10:48;2.63;;;1.10;;
83835;SDS011;73859;40.830;43.828;2023-12-14T12:13:18;1.50;;;0.77;;
83835;SDS011;73859;40.830;43.828;2023-12-14T12:15:47;9.23;;;7.90;;
83835;SDS011;73859;40.830;43.828;2023-12-14T12:18:15;1.90;;;1.20;;
83835;SDS011;73859;40.830;43.828;2023-12-14T12:20:44;2.92;;;1.33;;
83835;SDS011;73859;40.830;43.828;2023-12-14T12:23:12;5.93;;;3.10;;
83835;SDS011;73859;40.830;43.828;2023-12-14T12:25:40;2.17;;;1.42;;
83835;SDS011;73859;40.830;43.828;2023-12-14T12:28:07;4.75;;;1.80;;
83835;SDS011;73859;40.830;43.828;2023-12-14T12:30:35;5.22;;;1.83;;
83835;SDS011;73859;40.830;43.828;2023-12-14T12:33:07;6.00;;;1.60;;
83835;SDS011;73859;40.830;43.828;2023-12-14T12:35:34;3.70;;;1.30;;
83835;SDS011;73859;40.830;43.828;2023-12-14T12:38:01;2.80;;;1.70;;
83835;SDS011;73859;40.830;43.828;2023-12-14T12:40:30;3.15;;;1.90;;
83835;SDS011;73859;40.830;43.828;2023-12-14T12:42:58;2.90;;;1.60;;
83835;SDS011;73859;40.830;43.828;2023-12-14T12:45:25;2.70;;;1.73;;
83835;SDS011;73859;40.830;43.828;2023-12-14T12:47:55;3.33;;;1.58;;
83835;SDS011;73859;40.830;43.828;2023-12-14T12:50:23;4.35;;;1.83;;
83835;SDS011;73859;40.830;43.828;2023-12-14T12:52:51;4.88;;;1.80;;
83835;SDS011;73859;40.830;43.828;2023-12-14T12:55:18;5.93;;;2.88;;
83835;SDS011;73859;40.830;43.828;2023-12-14T12:57:46;5.95;;;1.85;;
83835;SDS011;73859;40.830;43.828;2023-12-14T13:00:15;2.00;;;1.30;;
83835;SDS011;73859;40.830;43.828;2023-12-14T13:02:43;4.80;;;1.60;;
83835;SDS011;73859;40.830;43.828;2023-12-14T13:05:14;3.67;;;1.50;;
83835;SDS011;73859;40.830;43.828;2023-12-14T13:07:45;3.22;;;1.30;;
83835;SDS011;73859;40.830;43.828;2023-12-14T13:10:14;3.88;;;1.42;;
83835;SDS011;73859;40.830;43.828;2023-12-14T13:12:56;3.28;;;1.80;;
83835;SDS011;73859;40.830;43.828;2023-12-14T13:15:24;6.70;;;1.92;;
83835;SDS011;73859;40.830;43.828;2023-12-14T13:17:53;5.80;;;3.10;;
83835;SDS011;73859;40.830;43.828;2023-12-14T13:20:21;4.63;;;2.15;;
83835;SDS011;73859;40.830;43.828;2023-12-14T13:22:49;3.38;;;2.25;;
83835;SDS011;73859;40.830;43.828;2023-12-14T13:25:16;7.03;;;2.75;;
83835;SDS011;73859;40.830;43.828;2023-12-14T13:27:44;6.60;;;3.28;;
83835;SDS011;73859;40.830;43.828;2023-12-14T13:30:11;10.40;;;4.95;;
83835;SDS011;73859;40.830;43.828;2023-12-14T13:32:45;13.27;;;5.57;;
83835;SDS011;73859;40.830;43.828;2023-12-14T13:35:13;9.77;;;4.85;;
83835;SDS011;73859;40.830;43.828;2023-12-14T13:37:41;8.38;;;4.30;;
83835;SDS011;73859;40.830;43.828;2023-12-14T13:40:08;8.90;;;4.85;;
83835;SDS011;73859;40.830;43.828;2023-12-14T13:42:40;12.63;;;5.47;;
83835;SDS011;73859;40.830;43.828;2023-12-14T13:45:28;20.60;;;9.20;;
83835;SDS011;73859;40.830;43.828;2023-12-14T13:47:57;23.55;;;9.65;;
83835;SDS011;73859;40.830;43.828;2023-12-14T13:50:26;31.92;;;12.23;;
83835;SDS011;73859;40.830;43.828;2023-12-14T13:52:55;35.17;;;12.93;;
83835;SDS011;73859;40.830;43.828;2023-12-14T13:55:23;33.33;;;13.55;;
83835;SDS011;73859;40.830;43.828;2023-12-14T13:57:51;22.67;;;10.65;;
83835;SDS011;73859;40.830;43.828;2023-12-14T14:00:18;14.02;;;7.10;;
83835;SDS011;73859;40.830;43.828;2023-12-14T14:02:47;16.15;;;7.25;;
83835;SDS011;73859;40.830;43.828;2023-12-14T14:07:42;12.38;;;6.85;;
83835;SDS011;73859;40.830;43.828;2023-12-14T14:10:09;15.85;;;6.85;;
83835;SDS011;73859;40.830;43.828;2023-12-14T14:12:37;18.52;;;8.20;;
83835;SDS011;73859;40.830;43.828;2023-12-14T14:15:05;16.45;;;9.20;;
83835;SDS011;73859;40.830;43.828;2023-12-14T14:17:33;19.67;;;8.80;;
83835;SDS011;73859;40.830;43.828;2023-12-14T14:20:00;15.57;;;8.52;;
83835;SDS011;73859;40.830;43.828;2023-12-14T14:22:28;14.80;;;8.43;;
83835;SDS011;73859;40.830;43.828;2023-12-14T14:24:56;17.60;;;9.07;;
83835;SDS011;73859;40.830;43.828;2023-12-14T14:27:23;20.15;;;10.57;;
83835;SDS011;73859;40.830;43.828;2023-12-14T14:29:51;24.63;;;9.95;;
83835;SDS011;73859;40.830;43.828;2023-12-14T14:32:22;24.40;;;11.15;;
83835;SDS011;73859;40.830;43.828;2023-12-14T14:34:49;28.48;;;11.88;;
83835;SDS011;73859;40.830;43.828;2023-12-14T14:37:17;25.73;;;12.48;;
83835;SDS011;73859;40.830;43.828;2023-12-14T14:39:45;29.83;;;12.55;;
83835;SDS011;73859;40.830;43.828;2023-12-14T14:42:12;25.75;;;12.75;;
83835;SDS011;73859;40.830;43.828;2023-12-14T14:44:40;25.70;;;11.48;;
83835;SDS011;73859;40.830;43.828;2023-12-14T14:47:07;17.75;;;9.77;;
83835;SDS011;73859;40.830;43.828;2023-12-14T14:49:35;15.75;;;7.50;;
83835;SDS011;73859;40.830;43.828;2023-12-14T14:52:02;17.98;;;7.90;;
83835;SDS011;73859;40.830;43.828;2023-12-14T14:54:30;26.70;;;12.10;;